This is the latest recevied weather packets stored in our database for station/object HB9Y1. If no packets are shown the sender has not sent any weather packets the latest 10 day(s).
| Time | Temp. | Humidity | Pressure | Rain* | Wind** | Luminosity | Snow |
|---|---|---|---|---|---|---|---|
| 1777073785 | 6.67° C | 67% | 1017.3 hPa | 0 mm | - | 0 W/m² | - |
| 1777072583 | 6.67° C | 64% | 1017.4 hPa | 0 mm | - | 0 W/m² | - |
| 1777071997 | 6.67° C | 65% | 1017.4 hPa | 0 mm | - | 0 W/m² | - |
| 1777061785 | 7.78° C | 64% | 1017.7 hPa | 0 mm | - | 0 W/m² | - |
| 1777054522 | 9.44° C | 63% | 1017.3 hPa | 0 mm | - | 8 W/m² | - |
| 1777053930 | 9.44° C | 61% | 1017.3 hPa | 0 mm | - | 14 W/m² | - |
| 1777049742 | 12.78° C | 53% | 1017.2 hPa | 0 mm | - | 409 W/m² | - |
| 1777048521 | 13.33° C | 50% | 1016.9 hPa | 0 mm | - | 473 W/m² | - |
| 1777047930 | 13.89° C | 48% | 1016.9 hPa | 0 mm | - | 491 W/m² | - |
| 1777044922 | 15° C | 42% | 1016.9 hPa | 0 mm | - | 602 W/m² | - |
| 1777043130 | 15.56° C | 40% | 1016.9 hPa | 0 mm | - | 655 W/m² | - |
| 1777042522 | 15.56° C | 42% | 1016.9 hPa | 0 mm | - | 665 W/m² | - |
| 1777041928 | 16.11° C | 40% | 1016.5 hPa | 0 mm | - | 667 W/m² | - |
| 1777031722 | 16.67° C | 35% | 1016.5 hPa | 0 mm | - | 768 W/m² | - |
| 1777029320 | 15.56° C | 30% | 1016.9 hPa | 0 mm | - | 727 W/m² | - |
| 1777025722 | 13.89° C | 27% | 1017.3 hPa | 0 mm | - | 662 W/m² | - |
| 1777022122 | 12.22° C | 33% | 1017.3 hPa | 0 mm | - | 550 W/m² | - |
| 1777020922 | 11.67° C | 39% | 1017.3 hPa | 0 mm | - | 488 W/m² | - |
| 1777019130 | 10.56° C | 41% | 1017.7 hPa | 0 mm | - | 402 W/m² | - |
| 1777012522 | 6.11° C | 44% | 1017.9 hPa | 0 mm | - | 136 W/m² | - |
| 1777011322 | 5° C | 46% | 1018.1 hPa | 0 mm | - | 35 W/m² | - |
| 1777006522 | 4.44° C | 48% | 1018.1 hPa | 0 mm | - | 12 W/m² | - |
| 1777004142 | 4.44° C | 47% | 1017.7 hPa | 0 mm | - | 0 W/m² | - |
| 1777003528 | 3.89° C | 46% | 1017.7 hPa | 0 mm | - | 0 W/m² | - |
| 1776998121 | 4.44° C | 49% | 1018.4 hPa | 0 mm | - | 0 W/m² | - |
* Rain latest hour (hover to see other rain measurements)
** Current wind speed in m/s (hover to see current wind gust speed)